createdAt,value
2023-04-28T00:00:14.440Z,0.61
2023-04-28T00:01:14.448Z,0.38
2023-04-28T00:02:14.466Z,0.38
2023-04-28T00:03:14.583Z,0.26
2023-04-28T00:04:14.687Z,0.45
2023-04-28T00:05:14.595Z,0.44
2023-04-28T00:06:14.463Z,0.44
2023-04-28T00:07:14.452Z,0.77
2023-04-28T00:08:14.452Z,0.65
2023-04-28T00:09:14.455Z,0.41
2023-04-28T00:10:14.484Z,0.45
2023-04-28T00:11:14.491Z,0.39
2023-04-28T00:12:14.480Z,0.43
2023-04-28T00:13:14.502Z,0.64
2023-04-28T00:14:14.644Z,0.71
2023-04-28T00:15:14.550Z,0.28
2023-04-28T00:16:14.614Z,0.43
2023-04-28T00:17:14.600Z,0.60
2023-04-28T00:18:14.678Z,0.65
2023-04-28T00:19:14.580Z,0.44
2023-04-28T00:20:14.587Z,0.37
2023-04-28T00:21:14.597Z,0.58
2023-04-28T00:22:14.621Z,0.44
2023-04-28T00:23:14.650Z,0.38
2023-04-28T00:24:14.900Z,0.37
2023-04-28T00:25:14.666Z,0.47
2023-04-28T00:26:14.670Z,0.33
2023-04-28T00:27:14.675Z,0.32
2023-04-28T00:28:26.893Z,0.40
2023-04-28T00:29:15.673Z,0.46
2023-04-28T00:30:14.648Z,0.54
2023-04-28T00:31:14.757Z,0.76
2023-04-28T00:32:14.646Z,0.54
2023-04-28T00:33:14.613Z,0.84
2023-04-28T00:34:14.853Z,0.50
2023-04-28T00:35:14.603Z,0.59
2023-04-28T00:36:14.600Z,0.50
2023-04-28T00:37:14.622Z,0.59
2023-04-28T00:38:14.587Z,0.55
2023-04-28T00:39:14.594Z,0.51
2023-04-28T00:40:14.579Z,0.43
2023-04-28T00:41:14.581Z,0.41
2023-04-28T00:42:14.590Z,0.33
2023-04-28T00:43:14.555Z,0.42
2023-04-28T00:44:14.802Z,0.51
2023-04-28T00:45:14.552Z,0.62
2023-04-28T00:46:14.633Z,0.44
2023-04-28T00:47:14.536Z,0.88
2023-04-28T00:48:14.537Z,0.35
2023-04-28T00:49:14.515Z,0.52
2023-04-28T00:50:14.521Z,0.42
2023-04-28T00:51:14.525Z,0.45
2023-04-28T00:52:14.539Z,0.39
2023-04-28T00:53:14.511Z,0.43
2023-04-28T00:54:14.772Z,0.36
2023-04-28T00:55:14.503Z,0.39
2023-04-28T00:56:14.478Z,0.42
2023-04-28T00:57:14.463Z,0.36
2023-04-28T00:58:14.483Z,0.52
2023-04-28T00:59:14.449Z,0.34
2023-04-28T01:00:14.447Z,0.30
2023-04-28T01:01:14.531Z,0.44
2023-04-28T01:02:14.473Z,0.54
2023-04-28T01:03:14.686Z,0.50
2023-04-28T01:04:14.908Z,0.53
2023-04-28T01:05:14.577Z,0.50
2023-04-28T01:06:14.586Z,0.35
2023-04-28T01:07:14.568Z,0.50
2023-04-28T01:08:14.555Z,0.54
2023-04-28T01:09:14.574Z,0.56
2023-04-28T01:10:14.621Z,0.54
2023-04-28T01:11:14.602Z,0.42
2023-04-28T01:12:14.625Z,0.25
2023-04-28T01:13:14.637Z,0.57
2023-04-28T01:14:14.788Z,0.46
2023-04-28T01:15:14.653Z,0.60
2023-04-28T01:16:14.708Z,0.27
2023-04-28T01:17:14.661Z,0.51
2023-04-28T01:18:14.676Z,0.57
2023-04-28T01:19:14.684Z,0.58
2023-04-28T01:20:14.748Z,0.51
2023-04-28T01:21:14.738Z,0.49
2023-04-28T01:22:14.734Z,0.64
2023-04-28T01:23:14.761Z,0.64
2023-04-28T01:24:15.007Z,0.32
2023-04-28T01:25:14.804Z,0.34
2023-04-28T01:26:14.793Z,0.53
2023-04-28T01:27:14.800Z,0.42
2023-04-28T01:28:14.786Z,0.43
2023-04-28T01:29:14.872Z,0.47
2023-04-28T01:30:14.886Z,0.98
2023-04-28T01:31:14.895Z,0.47
2023-04-28T01:32:14.870Z,0.54
2023-04-28T01:33:14.953Z,0.36
2023-04-28T01:34:15.218Z,0.60
2023-04-28T01:35:15.059Z,0.62
2023-04-28T01:36:15.050Z,0.52
2023-04-28T01:37:15.056Z,0.56
2023-04-28T01:38:15.059Z,0.57
2023-04-28T01:39:15.112Z,0.41
2023-04-28T01:40:15.123Z,0.65
2023-04-28T01:41:15.131Z,0.46
2023-04-28T01:42:15.130Z,0.53
2023-04-28T01:43:15.165Z,0.31
2023-04-28T01:44:15.388Z,0.49
2023-04-28T01:45:15.212Z,0.60
2023-04-28T01:46:15.366Z,0.43
2023-04-28T01:47:15.269Z,0.70
2023-04-28T01:48:15.270Z,0.54
2023-04-28T01:49:15.280Z,0.65
2023-04-28T01:50:15.324Z,0.64
2023-04-28T01:51:15.281Z,1.03
2023-04-28T01:52:15.290Z,0.76
2023-04-28T01:53:15.334Z,0.47
2023-04-28T01:54:15.519Z,0.63
2023-04-28T01:55:15.318Z,0.80
2023-04-28T01:56:15.321Z,0.32
2023-04-28T01:57:17.324Z,0.61
2023-04-28T01:58:15.333Z,0.66
2023-04-28T01:59:15.352Z,0.50
2023-04-28T02:00:15.359Z,0.36
2023-04-28T02:01:15.429Z,0.67
2023-04-28T02:02:15.370Z,0.77
2023-04-28T02:03:15.606Z,0.78
2023-04-28T02:04:15.712Z,0.58
2023-04-28T02:05:15.431Z,0.94
2023-04-28T02:06:15.432Z,0.45
2023-04-28T02:07:15.455Z,0.68
2023-04-28T02:08:15.461Z,0.59
2023-04-28T02:09:15.521Z,0.55
2023-04-28T02:10:15.532Z,0.57
2023-04-28T02:11:15.560Z,0.52
2023-04-28T02:12:15.534Z,0.54
2023-04-28T02:13:15.547Z,0.41
2023-04-28T02:14:15.792Z,0.94
2023-04-28T02:15:15.550Z,0.41
2023-04-28T02:16:15.599Z,0.46
2023-04-28T02:17:15.577Z,0.74
2023-04-28T02:18:15.589Z,0.62
2023-04-28T02:19:15.625Z,0.46
2023-04-28T02:20:15.607Z,0.55
2023-04-28T02:21:15.623Z,0.61
2023-04-28T02:22:15.634Z,0.50
2023-04-28T02:23:15.656Z,0.43
2023-04-28T02:24:15.840Z,0.61
2023-04-28T02:25:15.684Z,0.39
2023-04-28T02:26:15.685Z,0.46
2023-04-28T02:27:15.685Z,0.41
2023-04-28T02:28:15.680Z,0.44
2023-04-28T02:29:15.732Z,0.60
2023-04-28T02:30:15.817Z,0.50
2023-04-28T02:31:15.848Z,0.67
2023-04-28T02:32:15.854Z,0.66
2023-04-28T02:33:15.871Z,0.57
2023-04-28T02:34:16.182Z,0.57
2023-04-28T02:35:15.888Z,0.45
2023-04-28T02:36:15.880Z,0.52
2023-04-28T02:37:15.897Z,0.75
2023-04-28T02:38:15.901Z,0.55
2023-04-28T02:39:15.928Z,0.62
2023-04-28T02:40:15.928Z,0.50
2023-04-28T02:41:15.916Z,0.90
2023-04-28T02:42:15.925Z,0.51
2023-04-28T02:43:15.935Z,0.46
2023-04-28T02:44:16.311Z,0.55
2023-04-28T02:45:15.948Z,0.54
2023-04-28T02:46:15.977Z,0.36
2023-04-28T02:47:15.984Z,0.52
2023-04-28T02:48:15.990Z,0.57
2023-04-28T02:49:16.000Z,0.46
2023-04-28T02:50:16.002Z,0.51
2023-04-28T02:51:16.002Z,0.60
2023-04-28T02:52:16.052Z,0.61
2023-04-28T02:53:16.065Z,0.28
2023-04-28T02:54:16.390Z,0.53
2023-04-28T02:55:16.089Z,0.50
2023-04-28T02:56:16.092Z,0.76
2023-04-28T02:57:16.108Z,0.88
2023-04-28T02:58:16.115Z,0.38
2023-04-28T02:59:16.143Z,0.73
2023-04-28T03:00:16.172Z,0.47
2023-04-28T03:01:16.193Z,0.56
2023-04-28T03:02:16.188Z,0.55
2023-04-28T03:03:16.329Z,0.41
2023-04-28T03:04:16.547Z,0.72
2023-04-28T03:05:16.182Z,0.50
2023-04-28T03:06:16.196Z,0.51
2023-04-28T03:07:16.212Z,0.68
2023-04-28T03:08:16.220Z,0.49
2023-04-28T03:09:16.216Z,0.46
2023-04-28T03:10:16.236Z,0.61
2023-04-28T03:11:16.241Z,0.62
2023-04-28T03:12:16.233Z,0.64
2023-04-28T03:13:16.246Z,0.49
2023-04-28T03:14:16.562Z,0.71
2023-04-28T03:15:16.276Z,0.58
2023-04-28T03:16:16.327Z,0.66
2023-04-28T03:17:16.287Z,0.41
2023-04-28T03:18:16.305Z,0.94
2023-04-28T03:19:16.324Z,0.58
2023-04-28T03:20:16.344Z,0.47
2023-04-28T03:21:16.346Z,0.74
2023-04-28T03:22:16.354Z,0.72
2023-04-28T03:23:16.469Z,0.60
2023-04-28T03:24:16.630Z,0.63
2023-04-28T03:25:16.516Z,0.69
2023-04-28T03:26:16.490Z,0.61
2023-04-28T03:27:16.499Z,0.45
2023-04-28T03:28:16.510Z,0.63
2023-04-28T03:29:16.472Z,0.63
2023-04-28T03:30:16.471Z,0.46
2023-04-28T03:31:16.563Z,0.73
2023-04-28T03:32:16.854Z,0.74
2023-04-28T03:33:16.551Z,0.63
2023-04-28T03:34:16.719Z,0.43
2023-04-28T03:35:16.541Z,0.43
2023-04-28T03:36:16.544Z,0.80
2023-04-28T03:37:16.576Z,0.49
2023-04-28T03:38:16.605Z,0.62
2023-04-28T03:39:16.626Z,0.64
2023-04-28T03:40:16.559Z,0.66
2023-04-28T03:41:16.621Z,0.73
2023-04-28T03:42:16.586Z,0.57
2023-04-28T03:43:16.677Z,0.69
2023-04-28T03:44:16.845Z,0.70
2023-04-28T03:45:16.754Z,0.60
2023-04-28T03:46:16.809Z,0.65
2023-04-28T03:47:16.760Z,0.36
2023-04-28T03:48:16.776Z,0.54
2023-04-28T03:49:16.814Z,0.62
2023-04-28T03:50:16.912Z,0.67
2023-04-28T03:51:16.905Z,0.58
2023-04-28T03:52:16.930Z,0.49
2023-04-28T03:53:16.932Z,0.65
2023-04-28T03:54:17.113Z,0.78
2023-04-28T03:55:16.968Z,0.84
2023-04-28T03:56:16.979Z,0.59
2023-04-28T03:57:17.010Z,0.83
2023-04-28T03:58:17.004Z,0.72
2023-04-28T03:59:17.060Z,0.94
2023-04-28T04:00:17.028Z,0.59
2023-04-28T04:01:17.065Z,0.69
2023-04-28T04:02:17.139Z,0.60
2023-04-28T04:03:17.214Z,0.97
2023-04-28T04:04:17.724Z,0.51
2023-04-28T04:05:17.236Z,0.47
2023-04-28T04:06:17.099Z,0.78
2023-04-28T04:07:17.131Z,0.58
2023-04-28T04:08:17.193Z,0.61
2023-04-28T04:09:17.213Z,0.53
2023-04-28T04:10:17.228Z,0.48
2023-04-28T04:11:17.227Z,0.69
2023-04-28T04:12:17.248Z,0.77
2023-04-28T04:13:17.264Z,0.62
2023-04-28T04:14:17.579Z,0.79
2023-04-28T04:15:17.293Z,0.61
2023-04-28T04:16:17.401Z,0.80
2023-04-28T04:17:17.294Z,0.50
2023-04-28T04:18:17.283Z,0.55
2023-04-28T04:19:17.319Z,0.72
2023-04-28T04:20:17.343Z,1.28
2023-04-28T04:21:17.322Z,0.63
2023-04-28T04:22:17.330Z,0.51
2023-04-28T04:23:17.348Z,0.78
2023-04-28T04:24:17.575Z,0.64
2023-04-28T04:25:17.394Z,0.64
2023-04-28T04:26:17.481Z,0.70
2023-04-28T04:27:17.474Z,0.71
2023-04-28T04:28:17.476Z,0.58
2023-04-28T04:29:17.480Z,0.78
2023-04-28T04:30:17.507Z,0.60
2023-04-28T04:31:17.545Z,0.75
2023-04-28T04:32:17.518Z,0.81
2023-04-28T04:33:17.534Z,0.66
2023-04-28T04:34:17.710Z,0.60
2023-04-28T04:35:17.562Z,0.65
2023-04-28T04:36:17.578Z,0.62
2023-04-28T04:37:17.597Z,0.59
2023-04-28T04:38:17.608Z,0.76
2023-04-28T04:39:17.626Z,0.62
2023-04-28T04:40:17.630Z,0.71
2023-04-28T04:41:17.621Z,1.11
2023-04-28T04:43:18.613Z,0.61
2023-04-28T04:44:17.764Z,0.76
2023-04-28T04:45:17.595Z,0.66
2023-04-28T04:46:17.632Z,0.54
2023-04-28T04:47:17.603Z,0.68
2023-04-28T04:48:17.590Z,0.75
2023-04-28T04:49:17.568Z,0.49
2023-04-28T04:50:17.577Z,0.92
2023-04-28T04:51:17.577Z,0.56
2023-04-28T04:52:17.598Z,0.80
2023-04-28T04:53:17.552Z,0.76
2023-04-28T04:54:17.763Z,0.77
2023-04-28T04:55:17.543Z,0.59
2023-04-28T04:56:17.562Z,0.64
2023-04-28T04:57:17.510Z,0.65
2023-04-28T04:58:17.502Z,0.68
2023-04-28T04:59:17.510Z,0.60
2023-04-28T05:00:17.503Z,0.76
2023-04-28T05:01:17.537Z,0.73
2023-04-28T05:02:17.624Z,0.56
2023-04-28T05:03:17.648Z,0.59
2023-04-28T05:04:17.937Z,0.54
2023-04-28T05:05:21.832Z,0.62
2023-04-28T05:06:18.476Z,0.86
2023-04-28T05:07:17.458Z,0.65
2023-04-28T05:08:17.433Z,0.64
2023-04-28T05:09:17.438Z,0.69
2023-04-28T05:10:17.421Z,0.65
2023-04-28T05:11:17.450Z,0.97
2023-04-28T05:12:17.435Z,0.72
2023-04-28T05:13:17.413Z,0.56
2023-04-28T05:14:17.804Z,0.58
2023-04-28T05:15:17.392Z,0.49
2023-04-28T05:16:17.430Z,0.71
2023-04-28T05:17:17.393Z,0.62
2023-04-28T05:18:17.369Z,0.86
2023-04-28T05:19:17.379Z,0.51
2023-04-28T05:20:17.352Z,0.70
2023-04-28T05:21:17.365Z,0.54
2023-04-28T05:22:17.353Z,0.63
2023-04-28T05:23:17.344Z,0.79
2023-04-28T05:24:17.580Z,0.57
2023-04-28T05:25:17.334Z,0.61
2023-04-28T05:26:17.522Z,0.72
2023-04-28T05:27:17.324Z,0.70
2023-04-28T05:28:17.301Z,1.11
2023-04-28T05:29:17.279Z,0.98
2023-04-28T05:30:17.291Z,1.24
2023-04-28T05:31:17.306Z,1.18
2023-04-28T05:32:17.401Z,1.73
2023-04-28T05:33:17.323Z,1.57
2023-04-28T05:34:17.667Z,1.76
2023-04-28T05:35:17.342Z,1.62
2023-04-28T05:36:17.374Z,1.71
2023-04-28T05:37:17.346Z,2.16
2023-04-28T05:38:17.378Z,2.08
2023-04-28T05:39:17.355Z,2.21
2023-04-28T05:40:17.365Z,1.61
2023-04-28T05:41:17.375Z,1.41
2023-04-28T05:42:17.369Z,2.16
2023-04-28T05:43:17.404Z,1.86
2023-04-28T05:44:17.720Z,1.85
2023-04-28T05:45:17.375Z,1.67
2023-04-28T05:46:29.103Z,1.93
2023-04-28T05:47:18.384Z,1.75
2023-04-28T05:48:17.346Z,1.98
2023-04-28T05:49:17.431Z,1.43
2023-04-28T05:50:17.346Z,1.36
2023-04-28T05:51:17.385Z,1.50
2023-04-28T05:52:17.374Z,1.44
2023-04-28T05:53:17.393Z,1.66
2023-04-28T05:54:17.404Z,1.70
2023-04-28T05:55:17.296Z,1.50
2023-04-28T05:56:17.301Z,1.50
2023-04-28T05:57:17.404Z,0.96
2023-04-28T05:58:17.386Z,1.64
2023-04-28T05:59:17.528Z,1.63
2023-04-28T06:00:17.448Z,1.38
2023-04-28T06:01:17.529Z,1.17
2023-04-28T06:02:18.308Z,1.66
2023-04-28T06:03:17.911Z,1.65
2023-04-28T06:04:18.126Z,0.88
2023-04-28T06:05:18.121Z,1.47
2023-04-28T06:06:17.882Z,1.02
2023-04-28T06:07:18.035Z,0.97
2023-04-28T06:08:17.913Z,1.25
2023-04-28T06:09:18.231Z,1.25
2023-04-28T06:10:18.043Z,1.37
2023-04-28T06:11:18.089Z,1.29
2023-04-28T06:12:18.147Z,1.10
2023-04-28T06:13:18.195Z,0.99
2023-04-28T06:14:18.467Z,1.17
2023-04-28T06:15:18.323Z,1.12
2023-04-28T06:16:18.410Z,1.09
2023-04-28T06:17:18.516Z,1.17
2023-04-28T06:18:18.464Z,0.77
2023-04-28T06:19:18.525Z,0.77
2023-04-28T06:20:18.600Z,0.91
2023-04-28T06:21:18.637Z,0.96
2023-04-28T06:22:18.705Z,1.06
2023-04-28T06:23:18.735Z,1.10
2023-04-28T06:24:19.030Z,1.15
2023-04-28T06:25:18.839Z,0.66
2023-04-28T06:26:18.903Z,0.91
2023-04-28T06:27:18.963Z,0.95
2023-04-28T06:28:19.008Z,1.01
2023-04-28T06:29:19.055Z,1.08
2023-04-28T06:30:19.104Z,0.73
2023-04-28T06:31:19.181Z,0.84
2023-04-28T06:32:19.560Z,0.88
2023-04-28T06:33:19.260Z,0.85
2023-04-28T06:34:19.264Z,0.76
2023-04-28T06:35:19.310Z,1.42
2023-04-28T06:36:19.377Z,0.78
2023-04-28T06:37:19.431Z,0.89
2023-04-28T06:38:19.472Z,0.81
2023-04-28T06:39:19.507Z,1.03
2023-04-28T06:40:19.582Z,0.86
2023-04-28T06:41:19.616Z,0.58
2023-04-28T06:42:20.065Z,0.94
2023-04-28T06:43:19.713Z,0.74
2023-04-28T06:44:19.749Z,1.13
2023-04-28T06:45:19.797Z,0.91
2023-04-28T06:46:19.859Z,1.21
2023-04-28T06:47:19.895Z,0.66
2023-04-28T06:48:20.282Z,1.14
2023-04-28T06:49:19.987Z,0.90
2023-04-28T06:50:20.027Z,0.88
2023-04-28T06:51:20.063Z,0.73
2023-04-28T06:52:24.758Z,0.90
2023-04-28T06:53:21.548Z,0.79
2023-04-28T06:54:20.155Z,0.90
2023-04-28T06:55:20.091Z,0.94
2023-04-28T06:56:20.083Z,0.96
2023-04-28T06:57:20.529Z,1.00
2023-04-28T06:58:20.548Z,0.68
2023-04-28T06:59:20.180Z,0.76
2023-04-28T07:00:20.212Z,1.00
2023-04-28T07:01:20.396Z,0.79
2023-04-28T07:02:20.363Z,0.94
2023-04-28T07:03:20.432Z,1.04
2023-04-28T07:04:20.783Z,0.93
2023-04-28T07:05:20.385Z,0.80
2023-04-28T07:06:20.424Z,0.75
2023-04-28T07:07:20.454Z,1.05
2023-04-28T07:08:20.533Z,1.18
2023-04-28T07:09:20.505Z,1.09
2023-04-28T07:10:20.553Z,0.88
2023-04-28T07:11:20.573Z,1.22
2023-04-28T07:12:20.582Z,1.09
2023-04-28T07:13:20.623Z,0.99
2023-04-28T07:14:20.632Z,1.00
2023-04-28T07:15:20.654Z,1.09
2023-04-28T07:16:20.743Z,0.81
2023-04-28T07:17:20.713Z,0.94
2023-04-28T07:18:21.051Z,1.75
2023-04-28T07:19:20.769Z,1.01
2023-04-28T07:20:20.788Z,1.10
2023-04-28T07:21:20.829Z,1.03
2023-04-28T07:22:20.870Z,0.77
2023-04-28T07:23:20.869Z,1.30
2023-04-28T07:24:20.908Z,1.12
2023-04-28T07:25:20.941Z,1.78
2023-04-28T07:26:20.968Z,2.25
2023-04-28T07:27:21.077Z,2.12
2023-04-28T07:28:21.095Z,1.91
2023-04-28T07:29:21.118Z,2.64
2023-04-28T07:30:28.020Z,2.74
2023-04-28T07:31:22.148Z,2.76
2023-04-28T07:32:21.589Z,2.21
2023-04-28T07:33:21.560Z,2.29
2023-04-28T07:34:21.090Z,2.53
2023-04-28T07:35:21.231Z,1.83
2023-04-28T07:36:21.071Z,2.06
2023-04-28T07:37:21.057Z,2.33
2023-04-28T07:38:21.045Z,1.89
2023-04-28T07:39:21.029Z,2.77
2023-04-28T07:40:21.028Z,2.11
2023-04-28T07:41:21.019Z,2.00
2023-04-28T07:42:21.064Z,1.98
2023-04-28T07:43:21.021Z,1.96
2023-04-28T07:44:20.992Z,2.00
2023-04-28T07:45:21.011Z,2.58
2023-04-28T07:46:21.092Z,1.96
2023-04-28T07:47:21.091Z,2.45
2023-04-28T07:48:21.593Z,1.89
2023-04-28T07:49:21.134Z,1.85
2023-04-28T07:50:21.292Z,1.93
2023-04-28T07:51:21.249Z,1.98
2023-04-28T07:52:21.549Z,2.00
2023-04-28T07:53:21.571Z,1.96
2023-04-28T07:54:21.290Z,1.54
2023-04-28T07:55:21.294Z,1.68
2023-04-28T07:56:21.317Z,1.79
2023-04-28T07:57:21.463Z,1.72
2023-04-28T07:58:21.363Z,1.86
2023-04-28T07:59:21.382Z,2.09
2023-04-28T08:00:21.412Z,1.73
2023-04-28T08:01:21.431Z,1.41
2023-04-28T08:02:21.599Z,1.65
2023-04-28T08:03:21.572Z,1.64
2023-04-28T08:05:21.733Z,1.79
2023-04-28T08:06:21.461Z,1.85
2023-04-28T08:07:21.575Z,1.69
2023-04-28T08:08:21.581Z,2.06
2023-04-28T08:09:21.493Z,1.50
2023-04-28T08:10:21.517Z,1.41
2023-04-28T08:11:21.484Z,1.74
2023-04-28T08:12:21.504Z,1.97
2023-04-28T08:13:21.533Z,1.36
2023-04-28T08:14:21.539Z,1.92
2023-04-28T08:15:21.525Z,1.57
2023-04-28T08:16:21.560Z,1.43
2023-04-28T08:17:21.591Z,1.72
2023-04-28T08:18:21.725Z,1.18
2023-04-28T08:19:21.556Z,1.42
2023-04-28T08:20:24.457Z,1.98
2023-04-28T08:21:21.528Z,1.65
2023-04-28T08:22:21.536Z,1.33
2023-04-28T08:23:21.574Z,1.64
2023-04-28T08:24:21.523Z,1.92
2023-04-28T08:25:21.517Z,1.51
2023-04-28T08:26:21.506Z,1.72
2023-04-28T08:27:21.503Z,2.06
2023-04-28T08:28:21.510Z,2.64
2023-04-28T08:29:21.487Z,3.79
2023-04-28T08:30:21.505Z,3.10
2023-04-28T08:31:21.524Z,3.12
2023-04-28T08:32:21.469Z,2.58
2023-04-28T08:33:21.582Z,2.30
2023-04-28T08:34:21.669Z,2.72
2023-04-28T08:35:21.470Z,2.78
2023-04-28T08:36:21.463Z,2.46
2023-04-28T08:37:21.434Z,3.64
2023-04-28T08:38:22.819Z,2.72
2023-04-28T08:39:21.405Z,3.41
2023-04-28T08:40:21.412Z,2.27
2023-04-28T08:41:21.471Z,2.46
2023-04-28T08:42:21.389Z,2.41
2023-04-28T08:43:21.388Z,2.30
2023-04-28T08:44:21.380Z,2.12
2023-04-28T08:45:21.361Z,2.39
2023-04-28T08:46:21.420Z,2.35
2023-04-28T08:47:21.379Z,2.66
2023-04-28T08:48:21.422Z,2.45
2023-04-28T08:49:21.353Z,2.40
2023-04-28T08:50:21.323Z,2.13
2023-04-28T08:51:21.322Z,2.17
2023-04-28T08:52:21.315Z,2.11
2023-04-28T08:53:21.320Z,2.00
2023-04-28T08:54:29.523Z,1.80
2023-04-28T08:55:22.312Z,2.26
2023-04-28T08:56:21.280Z,2.01
2023-04-28T08:57:21.309Z,2.10
2023-04-28T08:58:21.289Z,2.07
2023-04-28T08:59:21.306Z,1.98
2023-04-28T09:00:21.275Z,1.67
2023-04-28T09:01:21.318Z,2.04
2023-04-28T09:02:21.814Z,1.77
2023-04-28T09:03:21.332Z,1.49
2023-04-28T09:04:21.944Z,1.89
2023-04-28T09:05:21.394Z,1.76
2023-04-28T09:06:21.219Z,3.35
2023-04-28T09:07:21.254Z,2.16
2023-04-28T09:08:21.234Z,1.77
2023-04-28T09:09:21.184Z,1.80
2023-04-28T09:10:21.207Z,1.46
2023-04-28T09:11:21.169Z,1.69
2023-04-28T09:12:21.175Z,1.91
2023-04-28T09:13:21.161Z,1.53
2023-04-28T09:14:21.154Z,1.84
2023-04-28T09:15:21.143Z,1.37
2023-04-28T09:16:21.147Z,1.28
2023-04-28T09:17:21.148Z,1.07
2023-04-28T09:18:21.150Z,1.37
2023-04-28T09:19:21.143Z,1.37
2023-04-28T09:20:21.124Z,1.17
2023-04-28T09:21:21.154Z,1.76
2023-04-28T09:22:26.650Z,1.35
2023-04-28T09:23:22.107Z,1.43
2023-04-28T09:24:21.114Z,1.74
2023-04-28T09:25:21.101Z,1.59
2023-04-28T09:26:21.082Z,1.49
2023-04-28T09:27:21.105Z,1.22
2023-04-28T09:28:21.114Z,1.15
2023-04-28T09:29:21.087Z,1.81
2023-04-28T09:30:21.070Z,2.24
2023-04-28T09:31:21.105Z,2.04
2023-04-28T09:32:21.198Z,2.28
2023-04-28T09:33:21.150Z,1.94
2023-04-28T09:34:21.023Z,1.68
2023-04-28T09:35:21.037Z,2.07
2023-04-28T09:36:21.030Z,1.53
2023-04-28T09:37:21.065Z,1.83
2023-04-28T09:38:21.612Z,1.77
2023-04-28T09:39:21.179Z,1.36
2023-04-28T09:40:21.248Z,1.67
2023-04-28T09:41:21.274Z,1.82
2023-04-28T09:42:21.247Z,1.95
2023-04-28T09:43:22.235Z,1.90
2023-04-28T09:44:21.240Z,1.67
2023-04-28T09:45:21.236Z,2.04
2023-04-28T09:46:21.306Z,1.41
2023-04-28T09:47:21.277Z,1.71
2023-04-28T09:48:21.616Z,1.47
2023-04-28T09:49:21.317Z,1.91
2023-04-28T09:50:21.374Z,1.69
2023-04-28T09:51:21.392Z,1.60
2023-04-28T09:52:21.401Z,2.23
2023-04-28T09:53:21.408Z,1.77
2023-04-28T09:54:21.423Z,2.15
2023-04-28T09:55:21.443Z,1.98
2023-04-28T09:56:21.483Z,1.99
2023-04-28T09:57:21.510Z,1.91
2023-04-28T09:58:21.614Z,1.99
2023-04-28T09:59:21.583Z,3.00
2023-04-28T10:00:21.591Z,1.92
2023-04-28T10:01:21.659Z,2.13
2023-04-28T10:03:23.262Z,1.98
2023-04-28T10:04:21.750Z,2.10
2023-04-28T10:05:22.003Z,1.97
2023-04-28T10:06:21.615Z,1.73
2023-04-28T10:07:21.609Z,1.63
2023-04-28T10:08:21.609Z,1.87
2023-04-28T10:09:22.429Z,2.21
2023-04-28T10:10:21.572Z,1.99
2023-04-28T10:11:21.610Z,1.87
2023-04-28T10:12:21.684Z,1.64
2023-04-28T10:13:21.719Z,2.26
2023-04-28T10:14:21.730Z,2.17
2023-04-28T10:15:21.770Z,1.67
2023-04-28T10:16:21.840Z,2.07
2023-04-28T10:17:21.901Z,2.34
2023-04-28T10:18:21.897Z,2.19
2023-04-28T10:19:21.940Z,2.26
2023-04-28T10:20:21.983Z,1.78
2023-04-28T10:21:22.027Z,2.43
2023-04-28T10:22:22.089Z,2.28
2023-04-28T10:23:22.149Z,2.83
2023-04-28T10:24:22.642Z,2.60
2023-04-28T10:25:22.269Z,2.20
2023-04-28T10:26:22.315Z,2.23
2023-04-28T10:27:22.371Z,2.20
2023-04-28T10:28:22.420Z,2.13
2023-04-28T10:29:22.472Z,1.97
2023-04-28T10:30:27.554Z,2.07
2023-04-28T10:31:23.615Z,1.97
2023-04-28T10:32:22.482Z,1.86
2023-04-28T10:33:22.466Z,2.23
2023-04-28T10:34:22.459Z,1.64
2023-04-28T10:35:22.461Z,1.90
2023-04-28T10:36:33.511Z,1.76
2023-04-28T10:37:23.449Z,1.64
2023-04-28T10:38:22.443Z,1.77
2023-04-28T10:39:22.450Z,1.60
2023-04-28T10:40:22.440Z,1.91
2023-04-28T10:41:22.420Z,1.34
2023-04-28T10:42:22.428Z,1.46
2023-04-28T10:43:22.395Z,1.78
2023-04-28T10:44:22.400Z,1.73
2023-04-28T10:45:22.372Z,1.47
2023-04-28T10:46:22.389Z,1.41
2023-04-28T10:47:22.396Z,1.56
2023-04-28T10:48:22.361Z,1.39
2023-04-28T10:49:22.369Z,1.69
2023-04-28T10:50:29.319Z,1.74
2023-04-28T10:51:23.356Z,1.70
2023-04-28T10:52:22.345Z,1.71
2023-04-28T10:53:22.322Z,2.04
2023-04-28T10:54:22.320Z,1.68
2023-04-28T10:55:22.692Z,1.22
2023-04-28T10:56:22.303Z,1.47
2023-04-28T10:57:22.291Z,1.29
2023-04-28T10:58:22.284Z,1.86
2023-04-28T10:59:22.306Z,1.57
2023-04-28T11:00:22.271Z,1.40
2023-04-28T11:01:22.730Z,1.37
2023-04-28T11:02:22.383Z,1.72
2023-04-28T11:03:22.433Z,1.47
2023-04-28T11:04:22.688Z,1.34
2023-04-28T11:05:22.563Z,1.31
2023-04-28T11:06:22.519Z,1.35
2023-04-28T11:07:22.559Z,1.39
2023-04-28T11:08:22.655Z,1.29
2023-04-28T11:09:22.641Z,1.03
2023-04-28T11:10:22.648Z,1.30
2023-04-28T11:11:22.701Z,1.28
2023-04-28T11:12:22.737Z,1.49
2023-04-28T11:13:22.780Z,1.72
2023-04-28T11:14:23.140Z,1.49
2023-04-28T11:15:22.864Z,1.78
2023-04-28T11:16:22.929Z,1.26
2023-04-28T11:17:22.937Z,1.05
2023-04-28T11:18:22.971Z,1.20
2023-04-28T11:19:23.139Z,1.08
2023-04-28T11:20:23.052Z,1.44
2023-04-28T11:21:23.089Z,1.75
2023-04-28T11:22:23.122Z,1.47
2023-04-28T11:23:23.640Z,1.25
2023-04-28T11:24:23.666Z,1.10
2023-04-28T11:25:23.232Z,1.22
2023-04-28T11:26:23.269Z,1.23
2023-04-28T11:27:23.265Z,1.09
2023-04-28T11:28:23.285Z,1.24
2023-04-28T11:29:23.316Z,1.02
2023-04-28T11:30:23.334Z,1.11
2023-04-28T11:31:23.397Z,1.32
2023-04-28T11:32:23.387Z,1.15
2023-04-28T11:33:23.421Z,0.77
2023-04-28T11:34:23.442Z,1.35
2023-04-28T11:35:23.446Z,1.04
2023-04-28T11:36:23.483Z,0.79
2023-04-28T11:37:23.500Z,1.26
2023-04-28T11:38:23.497Z,1.10
2023-04-28T11:39:23.541Z,1.15
2023-04-28T11:40:23.557Z,0.80
2023-04-28T11:41:23.576Z,0.93
2023-04-28T11:42:23.600Z,1.08
2023-04-28T11:43:24.742Z,0.84
2023-04-28T11:44:23.626Z,1.33
2023-04-28T11:45:23.640Z,1.58
2023-04-28T11:46:23.757Z,1.32
2023-04-28T11:47:23.780Z,1.27
2023-04-28T11:48:23.810Z,1.42
2023-04-28T11:49:23.822Z,1.14
2023-04-28T11:50:23.829Z,1.37
2023-04-28T11:51:23.841Z,1.11
2023-04-28T11:52:23.877Z,0.88
2023-04-28T11:53:23.888Z,1.46
2023-04-28T11:54:23.865Z,0.98
2023-04-28T11:55:23.905Z,1.19
2023-04-28T11:56:23.981Z,0.85
2023-04-28T11:57:24.051Z,1.27
2023-04-28T11:58:24.164Z,1.06
2023-04-28T12:00:24.214Z,0.90
2023-04-28T12:01:24.496Z,1.06
2023-04-28T12:02:24.425Z,1.06
2023-04-28T12:03:24.562Z,1.15
2023-04-28T12:04:24.416Z,1.12
2023-04-28T12:05:24.472Z,1.25
2023-04-28T12:06:24.479Z,0.87
2023-04-28T12:07:24.526Z,1.07
2023-04-28T12:08:24.550Z,1.13
2023-04-28T12:09:24.567Z,1.23
2023-04-28T12:10:24.610Z,0.82
2023-04-28T12:11:25.702Z,0.77
2023-04-28T12:12:30.726Z,1.01
2023-04-28T12:13:25.666Z,1.14
2023-04-28T12:14:24.634Z,0.89
2023-04-28T12:15:24.634Z,0.96
2023-04-28T12:16:24.732Z,0.95
2023-04-28T12:17:24.633Z,0.87
2023-04-28T12:18:24.628Z,1.02
2023-04-28T12:19:24.614Z,0.97
2023-04-28T12:20:24.603Z,1.03
2023-04-28T12:21:24.611Z,1.03
2023-04-28T12:22:24.604Z,0.93
2023-04-28T12:23:24.574Z,0.94
2023-04-28T12:24:24.574Z,0.71
2023-04-28T12:25:24.563Z,0.64
2023-04-28T12:26:24.568Z,1.00
2023-04-28T12:27:24.557Z,0.80
2023-04-28T12:28:24.553Z,0.77
2023-04-28T12:29:24.535Z,0.81
2023-04-28T12:30:24.543Z,0.67
2023-04-28T12:31:24.545Z,0.76
2023-04-28T12:32:24.512Z,0.63
2023-04-28T12:33:24.538Z,0.57
2023-04-28T12:34:24.513Z,0.95
2023-04-28T12:35:24.496Z,0.64
2023-04-28T12:36:24.480Z,0.63
2023-04-28T12:37:24.477Z,0.77
2023-04-28T12:38:24.487Z,0.78
2023-04-28T12:39:24.470Z,0.51
2023-04-28T12:40:24.647Z,0.93
2023-04-28T12:41:24.470Z,0.99
2023-04-28T12:42:24.446Z,0.55
2023-04-28T12:43:24.444Z,0.64
2023-04-28T12:44:24.439Z,0.91
2023-04-28T12:45:24.446Z,0.66
2023-04-28T12:46:24.459Z,0.94
2023-04-28T12:47:24.452Z,0.93
2023-04-28T12:48:24.418Z,0.92
2023-04-28T12:49:24.399Z,0.50
2023-04-28T12:50:24.394Z,0.93
2023-04-28T12:51:24.394Z,0.70
2023-04-28T12:52:24.380Z,0.72
2023-04-28T12:53:24.378Z,0.73
2023-04-28T12:54:24.402Z,1.07
2023-04-28T12:55:24.375Z,0.76
2023-04-28T12:56:24.370Z,0.65
2023-04-28T12:57:24.356Z,1.00
2023-04-28T12:58:24.343Z,0.74
2023-04-28T12:59:24.361Z,0.85
2023-04-28T13:00:24.375Z,0.68
2023-04-28T13:01:24.376Z,0.74
2023-04-28T13:02:24.458Z,0.65
2023-04-28T13:03:24.541Z,0.58
2023-04-28T13:04:24.585Z,0.70
2023-04-28T13:05:24.390Z,0.64
2023-04-28T13:06:24.405Z,1.09
2023-04-28T13:07:24.436Z,1.12
2023-04-28T13:08:24.447Z,0.94
2023-04-28T13:09:24.480Z,0.88
2023-04-28T13:10:24.494Z,0.92
2023-04-28T13:11:24.504Z,0.76
2023-04-28T13:12:24.531Z,1.00
2023-04-28T13:13:24.561Z,0.51
2023-04-28T13:14:24.579Z,0.69
2023-04-28T13:15:24.594Z,0.99
2023-04-28T13:16:24.617Z,0.88
2023-04-28T13:17:24.649Z,1.18
2023-04-28T13:18:24.650Z,0.64
2023-04-28T13:19:24.636Z,0.58
2023-04-28T13:20:24.689Z,0.50
2023-04-28T13:21:24.673Z,0.58
2023-04-28T13:22:24.656Z,0.77